sensor_id;sensor_type;location;lat;lon;timestamp;temperature;humidity
46117;DHT22;32591;48.102;11.772;2024-01-30T00:02:02;1.10;99.90
46117;DHT22;32591;48.102;11.772;2024-01-30T00:04:29;1.00;99.90
46117;DHT22;32591;48.102;11.772;2024-01-30T00:06:57;1.00;99.90
46117;DHT22;32591;48.102;11.772;2024-01-30T00:09:24;1.00;99.90
46117;DHT22;32591;48.102;11.772;2024-01-30T00:11:50;0.90;99.90
46117;DHT22;32591;48.102;11.772;2024-01-30T00:14:17;0.90;99.90
46117;DHT22;32591;48.102;11.772;2024-01-30T00:16:44;0.90;99.90
46117;DHT22;32591;48.102;11.772;2024-01-30T00:19:11;0.90;99.90
46117;DHT22;32591;48.102;11.772;2024-01-30T00:21:38;0.90;99.90
46117;DHT22;32591;48.102;11.772;2024-01-30T00:24:06;0.90;99.90
46117;DHT22;32591;48.102;11.772;2024-01-30T00:26:33;0.90;99.90
46117;DHT22;32591;48.102;11.772;2024-01-30T00:29:00;0.90;99.90
46117;DHT22;32591;48.102;11.772;2024-01-30T00:31:26;0.90;99.90
46117;DHT22;32591;48.102;11.772;2024-01-30T00:33:53;0.80;99.90
46117;DHT22;32591;48.102;11.772;2024-01-30T00:36:20;0.90;99.90
46117;DHT22;32591;48.102;11.772;2024-01-30T00:38:47;0.90;99.90
46117;DHT22;32591;48.102;11.772;2024-01-30T00:41:15;0.80;99.90
46117;DHT22;32591;48.102;11.772;2024-01-30T00:43:43;0.80;99.90
46117;DHT22;32591;48.102;11.772;2024-01-30T00:46:10;0.80;99.90
46117;DHT22;32591;48.102;11.772;2024-01-30T00:48:37;0.90;99.90
46117;DHT22;32591;48.102;11.772;2024-01-30T00:51:04;0.80;99.90
46117;DHT22;32591;48.102;11.772;2024-01-30T00:53:31;0.80;99.90
46117;DHT22;32591;48.102;11.772;2024-01-30T00:55:57;0.80;99.90
46117;DHT22;32591;48.102;11.772;2024-01-30T00:58:25;0.80;99.90
46117;DHT22;32591;48.102;11.772;2024-01-30T01:00:52;0.80;99.90
46117;DHT22;32591;48.102;11.772;2024-01-30T01:03:19;0.80;99.90
46117;DHT22;32591;48.102;11.772;2024-01-30T01:05:45;0.70;99.90
46117;DHT22;32591;48.102;11.772;2024-01-30T01:08:12;0.70;99.90
46117;DHT22;32591;48.102;11.772;2024-01-30T01:10:40;0.70;99.90
46117;DHT22;32591;48.102;11.772;2024-01-30T01:13:07;0.70;99.90
46117;DHT22;32591;48.102;11.772;2024-01-30T01:15:35;0.70;99.90
46117;DHT22;32591;48.102;11.772;2024-01-30T01:18:02;0.70;99.90
46117;DHT22;32591;48.102;11.772;2024-01-30T01:20:29;0.70;99.90
46117;DHT22;32591;48.102;11.772;2024-01-30T01:22:56;0.70;99.90
46117;DHT22;32591;48.102;11.772;2024-01-30T01:25:23;0.70;99.90
46117;DHT22;32591;48.102;11.772;2024-01-30T01:27:49;0.70;99.90
46117;DHT22;32591;48.102;11.772;2024-01-30T01:30:18;0.60;99.90
46117;DHT22;32591;48.102;11.772;2024-01-30T01:32:48;0.60;99.90
46117;DHT22;32591;48.102;11.772;2024-01-30T01:35:21;0.60;99.90
46117;DHT22;32591;48.102;11.772;2024-01-30T01:37:48;0.60;99.90
46117;DHT22;32591;48.102;11.772;2024-01-30T01:40:20;0.60;99.90
46117;DHT22;32591;48.102;11.772;2024-01-30T01:42:49;0.60;99.90
46117;DHT22;32591;48.102;11.772;2024-01-30T01:45:16;0.60;99.90
46117;DHT22;32591;48.102;11.772;2024-01-30T01:47:42;0.50;99.90
46117;DHT22;32591;48.102;11.772;2024-01-30T01:50:12;0.50;99.90
46117;DHT22;32591;48.102;11.772;2024-01-30T01:52:40;0.50;99.90
46117;DHT22;32591;48.102;11.772;2024-01-30T01:55:07;0.50;99.90
46117;DHT22;32591;48.102;11.772;2024-01-30T01:57:34;0.50;99.90
46117;DHT22;32591;48.102;11.772;2024-01-30T02:00:00;0.40;99.90
46117;DHT22;32591;48.102;11.772;2024-01-30T02:02:32;0.40;99.90
46117;DHT22;32591;48.102;11.772;2024-01-30T02:05:01;0.40;99.90
46117;DHT22;32591;48.102;11.772;2024-01-30T02:07:29;0.30;99.90
46117;DHT22;32591;48.102;11.772;2024-01-30T02:09:56;0.40;99.90
46117;DHT22;32591;48.102;11.772;2024-01-30T02:12:23;0.30;99.90
46117;DHT22;32591;48.102;11.772;2024-01-30T02:14:49;0.30;99.90
46117;DHT22;32591;48.102;11.772;2024-01-30T02:17:16;0.30;99.90
46117;DHT22;32591;48.102;11.772;2024-01-30T02:19:43;0.30;99.90
46117;DHT22;32591;48.102;11.772;2024-01-30T02:22:11;0.30;99.90
46117;DHT22;32591;48.102;11.772;2024-01-30T02:24:39;0.30;99.90
46117;DHT22;32591;48.102;11.772;2024-01-30T02:27:06;0.30;99.90
46117;DHT22;32591;48.102;11.772;2024-01-30T02:29:32;0.30;99.90
46117;DHT22;32591;48.102;11.772;2024-01-30T02:31:59;0.30;99.90
46117;DHT22;32591;48.102;11.772;2024-01-30T02:34:26;0.30;99.90
46117;DHT22;32591;48.102;11.772;2024-01-30T02:36:53;0.30;99.90
46117;DHT22;32591;48.102;11.772;2024-01-30T02:39:21;0.30;99.90
46117;DHT22;32591;48.102;11.772;2024-01-30T02:41:47;0.20;99.90
46117;DHT22;32591;48.102;11.772;2024-01-30T02:44:14;0.20;99.90
46117;DHT22;32591;48.102;11.772;2024-01-30T02:46:41;0.20;99.90
46117;DHT22;32591;48.102;11.772;2024-01-30T02:49:08;0.20;99.90
46117;DHT22;32591;48.102;11.772;2024-01-30T02:51:34;0.20;99.90
46117;DHT22;32591;48.102;11.772;2024-01-30T02:54:01;0.20;99.90
46117;DHT22;32591;48.102;11.772;2024-01-30T02:56:29;0.20;99.90
46117;DHT22;32591;48.102;11.772;2024-01-30T02:58:56;0.20;99.90
46117;DHT22;32591;48.102;11.772;2024-01-30T03:01:23;0.20;99.90
46117;DHT22;32591;48.102;11.772;2024-01-30T03:03:50;0.20;99.90
46117;DHT22;32591;48.102;11.772;2024-01-30T03:06:17;0.10;99.90
46117;DHT22;32591;48.102;11.772;2024-01-30T03:08:45;0.10;99.90
46117;DHT22;32591;48.102;11.772;2024-01-30T03:11:12;0.10;99.90
46117;DHT22;32591;48.102;11.772;2024-01-30T03:13:40;0.00;99.90
46117;DHT22;32591;48.102;11.772;2024-01-30T03:16:08;0.00;99.90
46117;DHT22;32591;48.102;11.772;2024-01-30T03:18:35;0.10;99.90
46117;DHT22;32591;48.102;11.772;2024-01-30T03:21:01;0.00;99.90
46117;DHT22;32591;48.102;11.772;2024-01-30T03:23:28;0.10;99.90
46117;DHT22;32591;48.102;11.772;2024-01-30T03:25:57;0.10;99.90
46117;DHT22;32591;48.102;11.772;2024-01-30T03:28:24;0.10;99.90
46117;DHT22;32591;48.102;11.772;2024-01-30T03:30:52;0.10;99.90
46117;DHT22;32591;48.102;11.772;2024-01-30T03:33:19;0.10;99.90
46117;DHT22;32591;48.102;11.772;2024-01-30T03:35:46;0.20;99.90
46117;DHT22;32591;48.102;11.772;2024-01-30T03:38:13;0.10;99.90
46117;DHT22;32591;48.102;11.772;2024-01-30T03:40:39;0.10;99.90
46117;DHT22;32591;48.102;11.772;2024-01-30T03:43:06;0.10;99.90
46117;DHT22;32591;48.102;11.772;2024-01-30T03:45:33;0.20;99.90
46117;DHT22;32591;48.102;11.772;2024-01-30T03:48:01;0.10;99.90
46117;DHT22;32591;48.102;11.772;2024-01-30T03:50:27;0.20;99.90
46117;DHT22;32591;48.102;11.772;2024-01-30T03:52:54;0.20;99.90
46117;DHT22;32591;48.102;11.772;2024-01-30T03:55:21;0.10;99.90
46117;DHT22;32591;48.102;11.772;2024-01-30T03:57:48;0.20;99.90
46117;DHT22;32591;48.102;11.772;2024-01-30T04:00:15;0.20;99.90
46117;DHT22;32591;48.102;11.772;2024-01-30T04:02:42;0.20;99.90
46117;DHT22;32591;48.102;11.772;2024-01-30T04:05:10;0.20;99.90
46117;DHT22;32591;48.102;11.772;2024-01-30T04:07:37;0.20;99.90
46117;DHT22;32591;48.102;11.772;2024-01-30T04:10:04;0.20;99.90
46117;DHT22;32591;48.102;11.772;2024-01-30T04:12:31;0.30;99.90
46117;DHT22;32591;48.102;11.772;2024-01-30T04:14:58;0.30;99.90
46117;DHT22;32591;48.102;11.772;2024-01-30T04:17:25;0.40;99.90
46117;DHT22;32591;48.102;11.772;2024-01-30T04:19:54;0.50;99.90
46117;DHT22;32591;48.102;11.772;2024-01-30T04:22:22;0.60;99.90
46117;DHT22;32591;48.102;11.772;2024-01-30T04:24:49;0.60;99.90
46117;DHT22;32591;48.102;11.772;2024-01-30T04:27:16;0.60;99.90
46117;DHT22;32591;48.102;11.772;2024-01-30T04:29:42;0.60;99.90
46117;DHT22;32591;48.102;11.772;2024-01-30T04:32:09;0.60;99.90
46117;DHT22;32591;48.102;11.772;2024-01-30T04:34:36;0.60;99.90
46117;DHT22;32591;48.102;11.772;2024-01-30T04:37:03;0.60;99.90
46117;DHT22;32591;48.102;11.772;2024-01-30T04:39:32;0.50;99.90
46117;DHT22;32591;48.102;11.772;2024-01-30T04:41:59;0.50;99.90
46117;DHT22;32591;48.102;11.772;2024-01-30T04:44:26;0.50;99.90
46117;DHT22;32591;48.102;11.772;2024-01-30T04:46:52;0.50;99.90
46117;DHT22;32591;48.102;11.772;2024-01-30T04:49:19;0.50;99.90
46117;DHT22;32591;48.102;11.772;2024-01-30T04:51:46;0.50;99.90
46117;DHT22;32591;48.102;11.772;2024-01-30T04:54:13;0.50;99.90
46117;DHT22;32591;48.102;11.772;2024-01-30T04:56:41;0.50;99.90
46117;DHT22;32591;48.102;11.772;2024-01-30T04:59:08;0.50;99.90
46117;DHT22;32591;48.102;11.772;2024-01-30T05:01:34;0.50;99.90
46117;DHT22;32591;48.102;11.772;2024-01-30T05:04:01;0.50;99.90
46117;DHT22;32591;48.102;11.772;2024-01-30T05:06:29;0.50;99.90
46117;DHT22;32591;48.102;11.772;2024-01-30T05:08:56;0.40;99.90
46117;DHT22;32591;48.102;11.772;2024-01-30T05:11:22;0.40;99.90
46117;DHT22;32591;48.102;11.772;2024-01-30T05:13:51;0.40;99.90
46117;DHT22;32591;48.102;11.772;2024-01-30T05:16:17;0.30;99.90
46117;DHT22;32591;48.102;11.772;2024-01-30T05:18:44;0.30;99.90
46117;DHT22;32591;48.102;11.772;2024-01-30T05:21:11;0.10;99.90
46117;DHT22;32591;48.102;11.772;2024-01-30T05:23:38;0.30;99.90
46117;DHT22;32591;48.102;11.772;2024-01-30T05:26:05;0.30;99.90
46117;DHT22;32591;48.102;11.772;2024-01-30T05:28:32;0.30;99.90
46117;DHT22;32591;48.102;11.772;2024-01-30T05:31:00;0.20;99.90
46117;DHT22;32591;48.102;11.772;2024-01-30T05:33:27;0.20;99.90
46117;DHT22;32591;48.102;11.772;2024-01-30T05:35:54;0.10;99.90
46117;DHT22;32591;48.102;11.772;2024-01-30T05:38:21;0.10;99.90
46117;DHT22;32591;48.102;11.772;2024-01-30T05:40:48;0.20;99.90
46117;DHT22;32591;48.102;11.772;2024-01-30T05:43:15;0.20;99.90
46117;DHT22;32591;48.102;11.772;2024-01-30T05:45:41;0.20;99.90
46117;DHT22;32591;48.102;11.772;2024-01-30T05:48:10;0.20;99.90
46117;DHT22;32591;48.102;11.772;2024-01-30T05:50:37;0.30;99.90
46117;DHT22;32591;48.102;11.772;2024-01-30T05:53:04;0.30;99.90
46117;DHT22;32591;48.102;11.772;2024-01-30T05:55:31;0.30;99.90
46117;DHT22;32591;48.102;11.772;2024-01-30T05:57:57;0.30;99.90
46117;DHT22;32591;48.102;11.772;2024-01-30T06:00:24;0.30;99.90
46117;DHT22;32591;48.102;11.772;2024-01-30T06:02:51;0.30;99.90
46117;DHT22;32591;48.102;11.772;2024-01-30T06:05:22;0.30;99.90
46117;DHT22;32591;48.102;11.772;2024-01-30T06:07:49;0.30;99.90
46117;DHT22;32591;48.102;11.772;2024-01-30T06:10:16;0.30;99.90
46117;DHT22;32591;48.102;11.772;2024-01-30T06:12:43;0.30;99.90
46117;DHT22;32591;48.102;11.772;2024-01-30T06:15:10;0.40;99.90
46117;DHT22;32591;48.102;11.772;2024-01-30T06:17:38;0.40;99.90
46117;DHT22;32591;48.102;11.772;2024-01-30T06:20:06;0.40;99.90
46117;DHT22;32591;48.102;11.772;2024-01-30T06:22:34;0.40;99.90
46117;DHT22;32591;48.102;11.772;2024-01-30T06:25:01;0.40;99.90
46117;DHT22;32591;48.102;11.772;2024-01-30T06:27:28;0.40;99.90
46117;DHT22;32591;48.102;11.772;2024-01-30T06:29:55;0.40;99.90
46117;DHT22;32591;48.102;11.772;2024-01-30T06:32:22;0.40;99.90
46117;DHT22;32591;48.102;11.772;2024-01-30T06:34:49;0.40;99.90
46117;DHT22;32591;48.102;11.772;2024-01-30T06:37:15;0.50;99.90
46117;DHT22;32591;48.102;11.772;2024-01-30T06:39:43;0.50;99.90
46117;DHT22;32591;48.102;11.772;2024-01-30T06:42:10;0.50;99.90
46117;DHT22;32591;48.102;11.772;2024-01-30T06:44:37;0.50;99.90
46117;DHT22;32591;48.102;11.772;2024-01-30T06:47:04;0.50;99.90
46117;DHT22;32591;48.102;11.772;2024-01-30T06:49:31;0.40;99.90
46117;DHT22;32591;48.102;11.772;2024-01-30T06:51:58;0.40;99.90
46117;DHT22;32591;48.102;11.772;2024-01-30T06:54:24;0.40;99.90
46117;DHT22;32591;48.102;11.772;2024-01-30T06:56:52;0.40;99.90
46117;DHT22;32591;48.102;11.772;2024-01-30T06:59:19;0.40;99.90
46117;DHT22;32591;48.102;11.772;2024-01-30T07:01:46;0.70;99.90
46117;DHT22;32591;48.102;11.772;2024-01-30T07:04:13;0.40;99.90
46117;DHT22;32591;48.102;11.772;2024-01-30T07:06:40;0.50;99.90
46117;DHT22;32591;48.102;11.772;2024-01-30T07:09:06;0.60;99.90
46117;DHT22;32591;48.102;11.772;2024-01-30T07:11:34;0.80;99.90
46117;DHT22;32591;48.102;11.772;2024-01-30T07:14:02;0.90;99.90
46117;DHT22;32591;48.102;11.772;2024-01-30T07:16:29;0.90;99.90
46117;DHT22;32591;48.102;11.772;2024-01-30T07:18:55;1.00;99.90
46117;DHT22;32591;48.102;11.772;2024-01-30T07:21:22;1.00;99.90
46117;DHT22;32591;48.102;11.772;2024-01-30T07:23:53;1.00;99.90
46117;DHT22;32591;48.102;11.772;2024-01-30T07:26:20;0.90;99.90
46117;DHT22;32591;48.102;11.772;2024-01-30T07:28:47;0.90;99.90
46117;DHT22;32591;48.102;11.772;2024-01-30T07:31:16;0.90;99.90
46117;DHT22;32591;48.102;11.772;2024-01-30T07:33:46;1.10;99.90
46117;DHT22;32591;48.102;11.772;2024-01-30T07:36:13;1.20;99.90
46117;DHT22;32591;48.102;11.772;2024-01-30T07:38:39;1.30;99.90
46117;DHT22;32591;48.102;11.772;2024-01-30T07:41:06;1.30;99.90
46117;DHT22;32591;48.102;11.772;2024-01-30T07:43:33;1.40;99.90
46117;DHT22;32591;48.102;11.772;2024-01-30T07:46:01;1.40;99.90
46117;DHT22;32591;48.102;11.772;2024-01-30T07:48:29;1.40;99.90
46117;DHT22;32591;48.102;11.772;2024-01-30T07:50:57;1.50;99.90
46117;DHT22;32591;48.102;11.772;2024-01-30T07:53:24;1.50;99.90
46117;DHT22;32591;48.102;11.772;2024-01-30T07:55:52;1.60;99.90
46117;DHT22;32591;48.102;11.772;2024-01-30T07:58:19;1.60;99.90
46117;DHT22;32591;48.102;11.772;2024-01-30T08:00:45;1.70;99.90
46117;DHT22;32591;48.102;11.772;2024-01-30T08:03:12;1.80;99.90
46117;DHT22;32591;48.102;11.772;2024-01-30T08:05:43;1.90;99.90
46117;DHT22;32591;48.102;11.772;2024-01-30T08:08:10;2.00;99.90
46117;DHT22;32591;48.102;11.772;2024-01-30T08:10:36;2.10;99.90
46117;DHT22;32591;48.102;11.772;2024-01-30T08:13:03;2.20;99.90
46117;DHT22;32591;48.102;11.772;2024-01-30T08:15:30;2.40;99.90
46117;DHT22;32591;48.102;11.772;2024-01-30T08:17:57;2.60;99.90
46117;DHT22;32591;48.102;11.772;2024-01-30T08:20:24;2.80;99.90
46117;DHT22;32591;48.102;11.772;2024-01-30T08:22:53;2.80;99.90
46117;DHT22;32591;48.102;11.772;2024-01-30T08:25:20;2.90;99.90
46117;DHT22;32591;48.102;11.772;2024-01-30T08:27:47;3.00;99.90
46117;DHT22;32591;48.102;11.772;2024-01-30T08:30:14;3.10;99.90
46117;DHT22;32591;48.102;11.772;2024-01-30T08:32:41;3.20;99.90
46117;DHT22;32591;48.102;11.772;2024-01-30T08:35:08;3.30;99.90
46117;DHT22;32591;48.102;11.772;2024-01-30T08:37:35;3.40;99.90
46117;DHT22;32591;48.102;11.772;2024-01-30T08:40:03;3.50;99.90
46117;DHT22;32591;48.102;11.772;2024-01-30T08:42:30;3.60;99.90
46117;DHT22;32591;48.102;11.772;2024-01-30T08:44:58;3.70;99.90
46117;DHT22;32591;48.102;11.772;2024-01-30T08:47:25;3.80;99.90
46117;DHT22;32591;48.102;11.772;2024-01-30T08:49:52;3.90;99.90
46117;DHT22;32591;48.102;11.772;2024-01-30T08:52:19;4.10;99.90
46117;DHT22;32591;48.102;11.772;2024-01-30T08:54:46;4.10;99.90
46117;DHT22;32591;48.102;11.772;2024-01-30T08:57:14;4.30;99.90
46117;DHT22;32591;48.102;11.772;2024-01-30T08:59:41;4.40;99.90
46117;DHT22;32591;48.102;11.772;2024-01-30T09:02:10;4.60;99.90
46117;DHT22;32591;48.102;11.772;2024-01-30T09:04:38;4.70;99.90
46117;DHT22;32591;48.102;11.772;2024-01-30T09:07:05;4.80;99.90
46117;DHT22;32591;48.102;11.772;2024-01-30T09:09:34;5.00;99.90
46117;DHT22;32591;48.102;11.772;2024-01-30T09:12:01;5.10;99.90
46117;DHT22;32591;48.102;11.772;2024-01-30T09:14:33;5.20;99.90
46117;DHT22;32591;48.102;11.772;2024-01-30T09:17:00;5.30;99.90
46117;DHT22;32591;48.102;11.772;2024-01-30T09:19:28;5.70;99.90
46117;DHT22;32591;48.102;11.772;2024-01-30T09:21:56;5.50;99.90
46117;DHT22;32591;48.102;11.772;2024-01-30T09:24:23;5.70;99.90
46117;DHT22;32591;48.102;11.772;2024-01-30T09:26:49;5.80;99.90
46117;DHT22;32591;48.102;11.772;2024-01-30T09:29:16;6.00;99.90
46117;DHT22;32591;48.102;11.772;2024-01-30T09:31:44;6.10;99.90
46117;DHT22;32591;48.102;11.772;2024-01-30T09:34:11;6.20;99.90
46117;DHT22;32591;48.102;11.772;2024-01-30T09:36:38;6.30;99.90
46117;DHT22;32591;48.102;11.772;2024-01-30T09:39:05;6.50;99.90
46117;DHT22;32591;48.102;11.772;2024-01-30T09:41:33;6.60;99.90
46117;DHT22;32591;48.102;11.772;2024-01-30T09:44:02;6.80;99.90
46117;DHT22;32591;48.102;11.772;2024-01-30T09:46:30;6.90;99.90
46117;DHT22;32591;48.102;11.772;2024-01-30T09:48:59;7.00;99.90
46117;DHT22;32591;48.102;11.772;2024-01-30T09:51:26;7.20;99.90
46117;DHT22;32591;48.102;11.772;2024-01-30T09:53:54;7.50;99.90
46117;DHT22;32591;48.102;11.772;2024-01-30T09:56:21;7.70;99.90
46117;DHT22;32591;48.102;11.772;2024-01-30T09:58:48;7.90;99.90
46117;DHT22;32591;48.102;11.772;2024-01-30T10:01:15;8.00;99.50
46117;DHT22;32591;48.102;11.772;2024-01-30T10:03:44;8.10;98.80
46117;DHT22;32591;48.102;11.772;2024-01-30T10:06:13;8.30;98.20
46117;DHT22;32591;48.102;11.772;2024-01-30T10:08:41;8.40;99.00
46117;DHT22;32591;48.102;11.772;2024-01-30T10:11:08;8.50;98.60
46117;DHT22;32591;48.102;11.772;2024-01-30T10:13:35;8.60;98.50
46117;DHT22;32591;48.102;11.772;2024-01-30T10:16:02;8.70;98.70
46117;DHT22;32591;48.102;11.772;2024-01-30T10:18:31;8.90;98.40
46117;DHT22;32591;48.102;11.772;2024-01-30T10:20:58;9.10;96.70
46117;DHT22;32591;48.102;11.772;2024-01-30T10:23:26;9.30;97.10
46117;DHT22;32591;48.102;11.772;2024-01-30T10:25:53;9.60;97.30
46117;DHT22;32591;48.102;11.772;2024-01-30T10:28:20;9.70;96.30
46117;DHT22;32591;48.102;11.772;2024-01-30T10:30:56;9.80;94.90
46117;DHT22;32591;48.102;11.772;2024-01-30T10:33:25;10.00;95.50
46117;DHT22;32591;48.102;11.772;2024-01-30T10:35:53;10.10;94.90
46117;DHT22;32591;48.102;11.772;2024-01-30T10:38:21;10.30;93.80
46117;DHT22;32591;48.102;11.772;2024-01-30T10:40:50;10.50;92.70
46117;DHT22;32591;48.102;11.772;2024-01-30T10:43:19;10.50;93.70
46117;DHT22;32591;48.102;11.772;2024-01-30T10:45:48;10.70;93.50
46117;DHT22;32591;48.102;11.772;2024-01-30T10:48:16;10.80;93.60
46117;DHT22;32591;48.102;11.772;2024-01-30T10:50:44;11.00;92.90
46117;DHT22;32591;48.102;11.772;2024-01-30T10:53:11;11.00;93.20
46117;DHT22;32591;48.102;11.772;2024-01-30T10:55:39;11.00;93.40
46117;DHT22;32591;48.102;11.772;2024-01-30T10:58:07;11.00;93.00
46117;DHT22;32591;48.102;11.772;2024-01-30T11:00:35;11.00;93.40
46117;DHT22;32591;48.102;11.772;2024-01-30T11:03:03;11.10;93.80
46117;DHT22;32591;48.102;11.772;2024-01-30T11:05:30;11.20;93.20
46117;DHT22;32591;48.102;11.772;2024-01-30T11:07:57;11.30;93.40
46117;DHT22;32591;48.102;11.772;2024-01-30T11:10:24;11.40;93.00
46117;DHT22;32591;48.102;11.772;2024-01-30T11:12:51;11.50;92.30
46117;DHT22;32591;48.102;11.772;2024-01-30T11:15:20;11.50;92.70
46117;DHT22;32591;48.102;11.772;2024-01-30T11:17:50;11.50;92.10
46117;DHT22;32591;48.102;11.772;2024-01-30T11:20:19;11.50;91.90
46117;DHT22;32591;48.102;11.772;2024-01-30T11:22:47;11.40;91.90
46117;DHT22;32591;48.102;11.772;2024-01-30T11:25:16;11.40;91.80
46117;DHT22;32591;48.102;11.772;2024-01-30T11:27:43;11.40;92.30
46117;DHT22;32591;48.102;11.772;2024-01-30T11:30:21;11.40;92.20
46117;DHT22;32591;48.102;11.772;2024-01-30T11:33:01;11.30;92.90
46117;DHT22;32591;48.102;11.772;2024-01-30T11:35:31;11.30;92.90
46117;DHT22;32591;48.102;11.772;2024-01-30T11:37:59;11.30;92.80
46117;DHT22;32591;48.102;11.772;2024-01-30T11:40:26;11.30;92.80
46117;DHT22;32591;48.102;11.772;2024-01-30T11:42:54;11.20;92.70
46117;DHT22;32591;48.102;11.772;2024-01-30T11:45:22;11.30;93.00
46117;DHT22;32591;48.102;11.772;2024-01-30T11:47:49;11.30;93.50
46117;DHT22;32591;48.102;11.772;2024-01-30T11:50:16;11.30;92.50
46117;DHT22;32591;48.102;11.772;2024-01-30T11:52:43;11.30;92.50
46117;DHT22;32591;48.102;11.772;2024-01-30T11:55:09;11.40;91.90
46117;DHT22;32591;48.102;11.772;2024-01-30T11:57:36;11.50;92.30
46117;DHT22;32591;48.102;11.772;2024-01-30T12:00:05;11.60;93.10
46117;DHT22;32591;48.102;11.772;2024-01-30T12:02:36;11.80;93.20
46117;DHT22;32591;48.102;11.772;2024-01-30T12:05:04;11.90;93.30
46117;DHT22;32591;48.102;11.772;2024-01-30T12:07:31;12.00;92.50
46117;DHT22;32591;48.102;11.772;2024-01-30T12:09:58;12.20;92.70
46117;DHT22;32591;48.102;11.772;2024-01-30T12:12:25;12.30;92.70
46117;DHT22;32591;48.102;11.772;2024-01-30T12:14:52;12.30;92.80
46117;DHT22;32591;48.102;11.772;2024-01-30T12:17:23;12.30;92.30
46117;DHT22;32591;48.102;11.772;2024-01-30T12:20:01;12.30;92.20
46117;DHT22;32591;48.102;11.772;2024-01-30T12:22:29;12.30;92.20
46117;DHT22;32591;48.102;11.772;2024-01-30T12:24:56;12.30;91.90
46117;DHT22;32591;48.102;11.772;2024-01-30T12:27:23;12.30;92.40
46117;DHT22;32591;48.102;11.772;2024-01-30T12:29:55;12.40;92.20
46117;DHT22;32591;48.102;11.772;2024-01-30T12:32:22;12.40;91.90
46117;DHT22;32591;48.102;11.772;2024-01-30T12:34:49;12.40;91.80
46117;DHT22;32591;48.102;11.772;2024-01-30T12:37:17;12.40;92.00
46117;DHT22;32591;48.102;11.772;2024-01-30T12:39:48;12.40;92.00
46117;DHT22;32591;48.102;11.772;2024-01-30T12:42:14;12.30;91.60
46117;DHT22;32591;48.102;11.772;2024-01-30T12:44:41;12.40;92.00
46117;DHT22;32591;48.102;11.772;2024-01-30T12:47:08;12.40;91.70
46117;DHT22;32591;48.102;11.772;2024-01-30T12:49:35;12.50;91.70
46117;DHT22;32591;48.102;11.772;2024-01-30T12:52:02;12.70;91.90
46117;DHT22;32591;48.102;11.772;2024-01-30T12:54:31;12.60;91.40
46117;DHT22;32591;48.102;11.772;2024-01-30T12:56:57;12.70;91.30
46117;DHT22;32591;48.102;11.772;2024-01-30T12:59:24;12.80;91.00
46117;DHT22;32591;48.102;11.772;2024-01-30T13:01:51;13.00;91.10
46117;DHT22;32591;48.102;11.772;2024-01-30T13:04:18;13.00;90.80
46117;DHT22;32591;48.102;11.772;2024-01-30T13:06:45;13.20;91.10
46117;DHT22;32591;48.102;11.772;2024-01-30T13:09:12;13.30;90.70
46117;DHT22;32591;48.102;11.772;2024-01-30T13:11:40;13.40;89.70
46117;DHT22;32591;48.102;11.772;2024-01-30T13:14:07;13.30;90.00
46117;DHT22;32591;48.102;11.772;2024-01-30T13:16:33;13.40;89.90
46117;DHT22;32591;48.102;11.772;2024-01-30T13:19:00;13.40;90.40
46117;DHT22;32591;48.102;11.772;2024-01-30T13:21:27;13.40;90.50
46117;DHT22;32591;48.102;11.772;2024-01-30T13:23:54;13.30;90.20
46117;DHT22;32591;48.102;11.772;2024-01-30T13:26:21;13.30;90.20
46117;DHT22;32591;48.102;11.772;2024-01-30T13:28:49;13.30;90.20
46117;DHT22;32591;48.102;11.772;2024-01-30T13:31:16;13.20;90.20
46117;DHT22;32591;48.102;11.772;2024-01-30T13:33:43;13.20;89.90
46117;DHT22;32591;48.102;11.772;2024-01-30T13:36:11;13.10;90.20
46117;DHT22;32591;48.102;11.772;2024-01-30T13:38:38;13.10;90.40
46117;DHT22;32591;48.102;11.772;2024-01-30T13:41:05;13.20;90.10
46117;DHT22;32591;48.102;11.772;2024-01-30T13:43:32;13.20;90.60
46117;DHT22;32591;48.102;11.772;2024-01-30T13:46:00;13.40;90.50
46117;DHT22;32591;48.102;11.772;2024-01-30T13:48:26;13.40;89.00
46117;DHT22;32591;48.102;11.772;2024-01-30T13:50:53;13.60;88.80
46117;DHT22;32591;48.102;11.772;2024-01-30T13:53:21;13.50;87.20
46117;DHT22;32591;48.102;11.772;2024-01-30T13:55:47;13.60;85.40
46117;DHT22;32591;48.102;11.772;2024-01-30T13:58:14;13.70;84.60
46117;DHT22;32591;48.102;11.772;2024-01-30T14:00:41;13.80;84.80
46117;DHT22;32591;48.102;11.772;2024-01-30T14:03:09;13.90;85.30
46117;DHT22;32591;48.102;11.772;2024-01-30T14:05:36;14.00;84.60
46117;DHT22;32591;48.102;11.772;2024-01-30T14:08:03;14.00;84.90
46117;DHT22;32591;48.102;11.772;2024-01-30T14:10:31;14.00;84.10
46117;DHT22;32591;48.102;11.772;2024-01-30T14:12:57;14.00;84.70
46117;DHT22;32591;48.102;11.772;2024-01-30T14:15:24;14.00;85.00
46117;DHT22;32591;48.102;11.772;2024-01-30T14:17:52;13.90;83.40
46117;DHT22;32591;48.102;11.772;2024-01-30T14:20:20;14.00;83.10
46117;DHT22;32591;48.102;11.772;2024-01-30T14:22:47;13.80;84.00
46117;DHT22;32591;48.102;11.772;2024-01-30T14:25:13;13.80;84.60
46117;DHT22;32591;48.102;11.772;2024-01-30T14:27:41;13.80;87.00
46117;DHT22;32591;48.102;11.772;2024-01-30T14:30:09;13.70;85.10
46117;DHT22;32591;48.102;11.772;2024-01-30T14:32:36;13.60;83.60
46117;DHT22;32591;48.102;11.772;2024-01-30T14:35:05;13.50;83.80
46117;DHT22;32591;48.102;11.772;2024-01-30T14:37:35;13.50;84.20
46117;DHT22;32591;48.102;11.772;2024-01-30T14:40:02;13.40;84.70
46117;DHT22;32591;48.102;11.772;2024-01-30T14:42:29;13.40;85.90
46117;DHT22;32591;48.102;11.772;2024-01-30T14:44:57;13.30;85.80
46117;DHT22;32591;48.102;11.772;2024-01-30T14:47:24;13.20;87.70
46117;DHT22;32591;48.102;11.772;2024-01-30T14:49:52;13.10;83.80
46117;DHT22;32591;48.102;11.772;2024-01-30T14:52:18;13.10;83.50
46117;DHT22;32591;48.102;11.772;2024-01-30T14:54:46;13.00;84.30
46117;DHT22;32591;48.102;11.772;2024-01-30T14:57:13;12.90;86.60
46117;DHT22;32591;48.102;11.772;2024-01-30T14:59:40;12.90;87.30
46117;DHT22;32591;48.102;11.772;2024-01-30T15:02:07;12.80;88.10
46117;DHT22;32591;48.102;11.772;2024-01-30T15:04:34;12.70;88.50
46117;DHT22;32591;48.102;11.772;2024-01-30T15:07:01;12.60;89.50
46117;DHT22;32591;48.102;11.772;2024-01-30T15:09:28;12.60;90.30
46117;DHT22;32591;48.102;11.772;2024-01-30T15:11:56;12.60;90.70
46117;DHT22;32591;48.102;11.772;2024-01-30T15:14:23;12.50;91.50
46117;DHT22;32591;48.102;11.772;2024-01-30T15:16:50;12.60;91.60
46117;DHT22;32591;48.102;11.772;2024-01-30T15:19:16;12.60;91.20
46117;DHT22;32591;48.102;11.772;2024-01-30T15:21:43;12.50;92.10
46117;DHT22;32591;48.102;11.772;2024-01-30T15:24:10;12.40;91.60
46117;DHT22;32591;48.102;11.772;2024-01-30T15:26:40;12.40;93.20